Time;durP1;ratioP1;P1;durP2;ratioP2;P2;SDS_P1;SDS_P2;PMS_P1;PMS_P2;Temp;Humidity;BMP_temperature;BMP_pressure;BME280_temperature;BME280_humidity;BME280_pressure;Samples;Min_cycle;Max_cycle;Signal;HPM_P1;HPM_P2
2021/10/01 00:01:21;;;;;;;11.93;7.85;;;;;;;;;;143727;763;46012;-55
2021/10/01 00:03:48;;;;;;;15.93;8.38;;;;;;;;;;143730;649;46018;-54
2021/10/01 00:06:15;;;;;;;13.18;7.43;;;;;;;;;;143727;569;46022;-55
2021/10/01 00:08:41;;;;;;;14.40;8.27;;;;;;;;;;143728;596;46018;-55
2021/10/01 00:11:08;;;;;;;9.00;7.20;;;;;;;;;;143731;631;45022;-55
2021/10/01 00:13:37;;;;;;;10.77;7.78;;;;;;;;;;143728;590;46019;-54
2021/10/01 00:16:05;;;;;;;13.45;8.32;;;;;;;;;;143732;589;46023;-55
2021/10/01 00:18:32;;;;;;;12.50;7.40;;;;;;;;;;143729;594;46012;-55
2021/10/01 00:20:59;;;;;;;12.65;7.82;;;;;;;;;;143736;600;45023;-54
2021/10/01 00:23:26;;;;;;;12.20;7.78;;;;;;;;;;143728;585;46026;-55
2021/10/01 00:25:53;;;;;;;15.02;8.40;;;;;;;;;;143728;588;46918;-55
2021/10/01 00:28:20;;;;;;;10.95;8.02;;;;;;;;;;143729;633;46019;-55
2021/10/01 00:30:47;;;;;;;11.35;7.60;;;;;;;;;;143730;574;46023;-54
2021/10/01 00:33:14;;;;;;;12.32;8.15;;;;;;;;;;143728;570;46018;-54
2021/10/01 00:35:41;;;;;;;12.70;7.57;;;;;;;;;;143726;608;46023;-55
2021/10/01 00:38:08;;;;;;;15.63;9.50;;;;;;;;;;143728;592;45911;-54
2021/10/01 00:40:35;;;;;;;12.93;7.70;;;;;;;;;;143732;575;45050;-55
2021/10/01 00:43:03;;;;;;;14.93;9.40;;;;;;;;;;143727;653;46020;-54
2021/10/01 00:45:30;;;;;;;11.32;8.20;;;;;;;;;;143730;602;46023;-55
2021/10/01 00:47:57;;;;;;;13.38;8.30;;;;;;;;;;143728;646;46012;-55
2021/10/01 00:50:24;;;;;;;11.88;7.47;;;;;;;;;;143732;605;45032;-54
2021/10/01 00:52:51;;;;;;;11.40;7.87;;;;;;;;;;143728;569;46034;-55
2021/10/01 00:55:19;;;;;;;17.58;8.70;;;;;;;;;;143732;642;46022;-55
2021/10/01 00:57:45;;;;;;;12.73;8.25;;;;;;;;;;143728;583;46018;-55
2021/10/01 01:00:26;;;;;;;13.82;9.55;;;;;;;;;;143734;564;45023;-55
2021/10/01 01:02:54;;;;;;;17.95;9.48;;;;;;;;;;143729;578;46037;-54
2021/10/01 01:05:28;;;;;;;14.07;9.00;;;;;;;;;;143729;620;46918;-54
2021/10/01 01:08:02;;;;;;;14.45;8.68;;;;;;;;;;143730;600;47018;-54
2021/10/01 01:11:04;;;;;;;18.77;10.75;;;;;;;;;;143737;632;45022;-54
2021/10/01 01:13:48;;;;;;;13.85;10.23;;;;;;;;;;143731;602;46019;-55
2021/10/01 01:16:22;;;;;;;14.05;8.35;;;;;;;;;;143732;613;46022;-55
2021/10/01 01:18:53;;;;;;;12.50;10.02;;;;;;;;;;143729;630;45910;-54
2021/10/01 01:22:08;;;;;;;16.02;11.65;;;;;;;;;;143735;564;45023;-54
2021/10/01 01:25:32;;;;;;;16.67;10.00;;;;;;;;;;143730;569;46020;-54
2021/10/01 01:28:30;;;;;;;11.52;8.80;;;;;;;;;;143732;585;46022;-54
2021/10/01 01:31:04;;;;;;;14.82;10.55;;;;;;;;;;143732;827;46012;-54
2021/10/01 01:33:35;;;;;;;14.48;10.32;;;;;;;;;;143727;612;47022;-54
2021/10/01 01:36:02;;;;;;;13.80;11.12;;;;;;;;;;143729;567;46019;-54
2021/10/01 01:38:36;;;;;;;24.83;12.40;;;;;;;;;;143734;595;46012;-54
2021/10/01 01:41:05;;;;;;;17.33;11.15;;;;;;;;;;143730;593;45911;-54
2021/10/01 01:43:34;;;;;;;16.75;12.52;;;;;;;;;;143734;627;46022;-54
2021/10/01 01:46:02;;;;;;;13.18;9.48;;;;;;;;;;143733;825;47018;-54
2021/10/01 01:48:31;;;;;;;15.15;10.25;;;;;;;;;;143734;621;46022;-53
2021/10/01 01:50:59;;;;;;;12.82;9.88;;;;;;;;;;143730;633;45911;-55
2021/10/01 01:53:28;;;;;;;14.07;9.55;;;;;;;;;;143736;577;46022;-55
2021/10/01 01:55:57;;;;;;;16.25;10.35;;;;;;;;;;143731;653;46018;-54
2021/10/01 01:58:24;;;;;;;18.92;13.00;;;;;;;;;;143729;777;46022;-54
2021/10/01 02:00:51;;;;;;;15.15;11.38;;;;;;;;;;143729;569;45911;-54
2021/10/01 02:03:20;;;;;;;16.45;12.10;;;;;;;;;;143735;607;45034;-54
2021/10/01 02:05:49;;;;;;;15.35;11.25;;;;;;;;;;143732;602;46019;-55
2021/10/01 02:08:19;;;;;;;14.02;10.60;;;;;;;;;;143731;631;46022;-55
2021/10/01 02:10:47;;;;;;;17.37;12.55;;;;;;;;;;143731;581;45911;-54
2021/10/01 02:13:16;;;;;;;21.02;14.30;;;;;;;;;;143732;638;46022;-55
2021/10/01 02:15:46;;;;;;;16.70;11.05;;;;;;;;;;143732;589;46021;-55
2021/10/01 02:18:13;;;;;;;14.13;10.40;;;;;;;;;;143727;569;46022;-54
2021/10/01 02:20:41;;;;;;;19.02;13.52;;;;;;;;;;143729;621;45911;-55
2021/10/01 02:23:09;;;;;;;19.48;12.75;;;;;;;;;;143733;574;45026;-54
2021/10/01 02:28:40;;;;;;;24.05;15.00;;;;;;;;;;143730;654;46010;-54
2021/10/01 02:31:22;;;;;;;21.87;13.82;;;;;;;;;;143731;567;45909;-54
2021/10/01 02:33:51;;;;;;;14.10;11.23;;;;;;;;;;143732;564;46022;-55
2021/10/01 02:36:18;;;;;;;19.20;12.48;;;;;;;;;;143732;591;46018;-54
2021/10/01 02:38:45;;;;;;;18.37;12.75;;;;;;;;;;143731;620;46022;-54
2021/10/01 02:41:12;;;;;;;18.35;13.88;;;;;;;;;;143732;739;46012;-54
2021/10/01 02:43:39;;;;;;;18.75;12.88;;;;;;;;;;143735;566;46012;-55
2021/10/01 02:46:06;;;;;;;18.50;13.90;;;;;;;;;;143732;602;46020;-54
2021/10/01 02:48:36;;;;;;;25.52;15.15;;;;;;;;;;143731;593;46917;-54
2021/10/01 02:51:11;;;;;;;22.25;14.70;;;;;;;;;;143731;610;46019;-54
2021/10/01 02:53:55;;;;;;;19.77;16.45;;;;;;;;;;143733;569;45033;-54
2021/10/01 02:56:33;;;;;;;19.00;12.65;;;;;;;;;;143730;634;46020;-55
2021/10/01 02:59:02;;;;;;;20.67;15.00;;;;;;;;;;143730;564;46023;-54
2021/10/01 03:01:31;;;;;;;15.73;11.85;;;;;;;;;;143725;692;47012;-54
2021/10/01 03:04:02;;;;;;;19.58;14.80;;;;;;;;;;143734;567;46011;-54
2021/10/01 03:06:33;;;;;;;27.87;15.57;;;;;;;;;;143732;626;46019;-55
2021/10/01 03:09:01;;;;;;;18.30;13.40;;;;;;;;;;143731;597;46012;-54
2021/10/01 03:11:31;;;;;;;21.98;16.65;;;;;;;;;;143733;668;45909;-54
2021/10/01 03:14:00;;;;;;;21.17;13.02;;;;;;;;;;143735;639;46012;-54
2021/10/01 03:16:28;;;;;;;18.20;12.60;;;;;;;;;;143732;818;47018;-54
2021/10/01 03:18:58;;;;;;;21.77;15.25;;;;;;;;;;143734;617;46012;-54
2021/10/01 03:21:25;;;;;;;14.63;11.60;;;;;;;;;;143730;603;46012;-55
2021/10/01 03:23:53;;;;;;;21.20;15.07;;;;;;;;;;143733;619;45022;-54
2021/10/01 03:26:20;;;;;;;23.40;14.90;;;;;;;;;;143732;577;46018;-54
2021/10/01 03:28:48;;;;;;;14.32;11.70;;;;;;;;;;143732;647;46023;-54
2021/10/01 03:31:15;;;;;;;21.37;14.45;;;;;;;;;;143729;708;46012;-54
2021/10/01 03:33:45;;;;;;;20.50;15.20;;;;;;;;;;143735;682;46022;-55
2021/10/01 03:36:13;;;;;;;23.92;14.55;;;;;;;;;;143732;613;46019;-54
2021/10/01 03:38:40;;;;;;;14.35;10.65;;;;;;;;;;143733;574;46918;-54
2021/10/01 03:41:07;;;;;;;16.52;11.50;;;;;;;;;;143729;631;46012;-54
2021/10/01 03:43:34;;;;;;;19.33;13.25;;;;;;;;;;143735;808;46023;-54
2021/10/01 03:46:01;;;;;;;17.50;12.55;;;;;;;;;;143731;599;46018;-55
2021/10/01 03:48:28;;;;;;;19.92;14.50;;;;;;;;;;143732;610;46022;-55
2021/10/01 03:50:55;;;;;;;14.73;11.65;;;;;;;;;;143729;565;46013;-54
2021/10/01 03:53:22;;;;;;;18.50;12.57;;;;;;;;;;143735;818;45022;-54
2021/10/01 03:55:49;;;;;;;13.62;10.15;;;;;;;;;;143729;729;46018;-54
2021/10/01 03:58:16;;;;;;;14.45;9.82;;;;;;;;;;143732;601;46023;-54
2021/10/01 04:00:46;;;;;;;18.90;13.13;;;;;;;;;;143731;569;46012;-54
2021/10/01 04:03:14;;;;;;;13.65;10.90;;;;;;;;;;143732;571;45022;-55
2021/10/01 04:05:41;;;;;;;21.15;13.25;;;;;;;;;;143729;585;46019;-54
2021/10/01 04:08:11;;;;;;;20.12;12.30;;;;;;;;;;143730;591;46022;-54
2021/10/01 04:10:38;;;;;;;19.05;12.55;;;;;;;;;;143730;587;46018;-54
2021/10/01 04:13:09;;;;;;;22.20;14.07;;;;;;;;;;143734;808;46010;-54
2021/10/01 04:15:36;;;;;;;17.73;11.48;;;;;;;;;;143733;802;46026;-54
2021/10/01 04:18:04;;;;;;;20.48;11.82;;;;;;;;;;143733;744;46022;-55
2021/10/01 04:20:34;;;;;;;17.42;11.52;;;;;;;;;;143728;620;46019;-54
2021/10/01 04:23:01;;;;;;;16.48;11.80;;;;;;;;;;143734;577;46010;-54
2021/10/01 04:25:30;;;;;;;13.75;9.32;;;;;;;;;;143730;647;46018;-54
2021/10/01 04:27:57;;;;;;;13.40;9.85;;;;;;;;;;143735;591;46012;-55
2021/10/01 04:30:24;;;;;;;17.15;11.35;;;;;;;;;;143730;639;46018;-54
2021/10/01 04:33:00;;;;;;;13.32;9.88;;;;;;;;;;143734;593;46012;-54
2021/10/01 04:35:28;;;;;;;25.35;11.75;;;;;;;;;;143732;638;46019;-55
2021/10/01 04:37:55;;;;;;;16.73;10.95;;;;;;;;;;143730;603;46022;-54
2021/10/01 04:40:22;;;;;;;13.75;9.63;;;;;;;;;;143731;681;45909;-54
2021/10/01 04:42:49;;;;;;;15.57;10.98;;;;;;;;;;143733;614;45023;-54
2021/10/01 04:45:16;;;;;;;25.17;12.32;;;;;;;;;;143728;710;46020;-54
2021/10/01 04:47:43;;;;;;;18.12;13.52;;;;;;;;;;143731;740;46022;-54
2021/10/01 04:50:11;;;;;;;16.08;12.00;;;;;;;;;;143729;653;46012;-54
2021/10/01 04:52:38;;;;;;;12.73;10.27;;;;;;;;;;143733;754;45028;-54
2021/10/01 04:55:06;;;;;;;18.05;11.65;;;;;;;;;;143727;569;47018;-54
2021/10/01 04:57:33;;;;;;;15.25;10.15;;;;;;;;;;143729;750;46023;-54
2021/10/01 04:59:59;;;;;;;15.43;10.55;;;;;;;;;;143729;585;46018;-54
2021/10/01 05:02:26;;;;;;;18.67;11.77;;;;;;;;;;143732;589;46010;-54
2021/10/01 05:04:55;;;;;;;15.65;11.40;;;;;;;;;;143733;582;46020;-54
2021/10/01 05:07:25;;;;;;;18.73;13.30;;;;;;;;;;143729;564;46917;-54
2021/10/01 05:09:53;;;;;;;22.87;12.77;;;;;;;;;;143729;595;45909;-54
2021/10/01 05:12:20;;;;;;;18.52;11.93;;;;;;;;;;143732;571;46023;-54
2021/10/01 05:14:47;;;;;;;14.32;10.02;;;;;;;;;;143731;614;47020;-54
2021/10/01 05:17:14;;;;;;;12.57;9.82;;;;;;;;;;143729;565;46022;-55
2021/10/01 05:19:41;;;;;;;17.85;11.95;;;;;;;;;;143728;583;46019;-55
2021/10/01 05:22:08;;;;;;;15.13;10.73;;;;;;;;;;143736;624;45022;-55
2021/10/01 05:24:35;;;;;;;18.80;12.95;;;;;;;;;;143733;587;46018;-54
2021/10/01 05:27:03;;;;;;;15.13;11.95;;;;;;;;;;143727;587;46023;-54
2021/10/01 05:29:30;;;;;;;18.45;13.43;;;;;;;;;;143727;570;46012;-55
2021/10/01 05:31:57;;;;;;;21.17;14.73;;;;;;;;;;143730;588;46012;-54
2021/10/01 05:34:24;;;;;;;23.90;14.60;;;;;;;;;;143730;844;46018;-55
2021/10/01 05:36:51;;;;;;;15.82;12.18;;;;;;;;;;143726;594;47012;-54
2021/10/01 05:39:18;;;;;;;22.13;13.38;;;;;;;;;;143728;855;46012;-55
2021/10/01 05:41:46;;;;;;;20.23;13.43;;;;;;;;;;143730;601;45023;-54
2021/10/01 05:44:13;;;;;;;16.52;12.20;;;;;;;;;;143731;585;46018;-54
2021/10/01 05:46:45;;;;;;;16.35;9.82;;;;;;;;;;143728;612;46022;-54
2021/10/01 05:49:21;;;;;;;20.50;12.82;;;;;;;;;;143727;565;45910;-55
2021/10/01 05:51:53;;;;;;;18.15;12.65;;;;;;;;;;143732;863;46022;-54
2021/10/01 05:54:22;;;;;;;15.65;11.35;;;;;;;;;;143729;633;46018;-54
2021/10/01 05:56:54;;;;;;;23.98;14.90;;;;;;;;;;143728;626;46013;-54
2021/10/01 05:59:23;;;;;;;24.52;16.90;;;;;;;;;;143729;606;45909;-54
2021/10/01 06:01:51;;;;;;;21.15;15.70;;;;;;;;;;143733;617;45022;-54
2021/10/01 06:04:18;;;;;;;20.37;15.10;;;;;;;;;;143728;653;46019;-55
2021/10/01 06:06:45;;;;;;;18.77;14.80;;;;;;;;;;143728;587;46918;-55
2021/10/01 06:09:14;;;;;;;23.87;15.23;;;;;;;;;;143727;780;45909;-55
2021/10/01 06:11:41;;;;;;;28.75;20.12;;;;;;;;;;143731;639;46022;-54
2021/10/01 06:14:10;;;;;;;40.80;26.48;;;;;;;;;;143727;570;46018;-55
2021/10/01 06:16:38;;;;;;;47.35;28.80;;;;;;;;;;143730;667;46012;-54
2021/10/01 06:19:05;;;;;;;39.80;26.37;;;;;;;;;;143727;650;46013;-55
2021/10/01 06:21:32;;;;;;;35.22;24.25;;;;;;;;;;143730;592;45022;-55
2021/10/01 06:23:59;;;;;;;32.20;21.02;;;;;;;;;;143729;702;46020;-54
2021/10/01 06:26:26;;;;;;;39.70;26.37;;;;;;;;;;143725;577;46917;-54
2021/10/01 06:28:53;;;;;;;27.92;17.40;;;;;;;;;;143727;786;45909;-53
2021/10/01 06:31:20;;;;;;;31.08;20.00;;;;;;;;;;143730;603;45022;-55
2021/10/01 06:33:47;;;;;;;27.80;18.40;;;;;;;;;;143727;782;46019;-54
2021/10/01 06:36:19;;;;;;;27.83;18.15;;;;;;;;;;143728;587;46022;-54
2021/10/01 06:38:46;;;;;;;26.95;17.65;;;;;;;;;;143726;822;45909;-54
2021/10/01 06:41:14;;;;;;;26.02;15.80;;;;;;;;;;143727;586;46023;-54
2021/10/01 06:43:41;;;;;;;22.25;16.85;;;;;;;;;;143726;569;46018;-54
2021/10/01 06:46:18;;;;;;;23.40;18.30;;;;;;;;;;143729;619;46022;-54
2021/10/01 06:51:48;;;;;;;25.60;14.75;;;;;;;;;;143731;603;46024;-54
2021/10/01 07:36:07;;;;;;;32.42;18.75;;;;;;;;;;143736;565;45025;-55
2021/10/01 08:19:35;;;;;;;18.02;9.75;;;;;;;;;;143755;626;45023;-55
2021/10/01 08:22:02;;;;;;;18.02;9.77;;;;;;;;;;143755;605;45018;-54
2021/10/01 08:24:31;;;;;;;23.62;10.02;;;;;;;;;;143751;613;45919;-54
2021/10/01 08:26:59;;;;;;;14.68;9.45;;;;;;;;;;143748;594;45910;-55
2021/10/01 08:29:26;;;;;;;14.10;8.52;;;;;;;;;;143756;579;45022;-55
2021/10/01 08:31:59;;;;;;;14.82;8.50;;;;;;;;;;143755;612;45020;-54
2021/10/01 08:34:27;;;;;;;14.02;7.87;;;;;;;;;;143753;588;45023;-55
2021/10/01 08:36:54;;;;;;;13.95;7.37;;;;;;;;;;143744;592;45910;-55
2021/10/01 08:39:21;;;;;;;13.65;6.95;;;;;;;;;;143728;661;46022;-56
2021/10/01 08:41:48;;;;;;;17.77;7.57;;;;;;;;;;143726;611;46021;-56
2021/10/01 08:44:16;;;;;;;17.87;7.12;;;;;;;;;;143730;613;46012;-56
2021/10/01 08:46:48;;;;;;;14.77;6.82;;;;;;;;;;143726;602;46012;-55
2021/10/01 08:49:15;;;;;;;16.50;7.07;;;;;;;;;;143729;586;46010;-56
2021/10/01 08:51:42;;;;;;;16.17;8.18;;;;;;;;;;143726;606;46018;-55
2021/10/01 08:54:09;;;;;;;10.30;6.60;;;;;;;;;;143733;590;46013;-56
2021/10/01 08:56:36;;;;;;;10.50;6.68;;;;;;;;;;143727;614;45910;-56
2021/10/01 08:59:03;;;;;;;13.62;6.18;;;;;;;;;;143725;581;47022;-56
2021/10/01 09:01:31;;;;;;;14.60;7.65;;;;;;;;;;143727;602;46019;-57
2021/10/01 09:03:57;;;;;;;12.80;6.78;;;;;;;;;;143729;586;46012;-57
2021/10/01 09:06:25;;;;;;;14.30;7.93;;;;;;;;;;143724;592;46018;-56
2021/10/01 09:09:09;;;;;;;16.73;8.38;;;;;;;;;;143727;622;46022;-56
2021/10/01 09:11:47;;;;;;;13.85;7.47;;;;;;;;;;143727;614;46018;-57
2021/10/01 09:14:21;;;;;;;16.30;8.27;;;;;;;;;;143727;623;46022;-56
2021/10/01 09:16:48;;;;;;;26.85;17.17;;;;;;;;;;143727;593;46012;-58
2021/10/01 09:19:15;;;;;;;16.35;7.93;;;;;;;;;;143727;604;46023;-57
2021/10/01 09:21:51;;;;;;;25.88;13.77;;;;;;;;;;143727;612;46018;-56
2021/10/01 09:24:24;;;;;;;23.08;11.20;;;;;;;;;;143724;594;46920;-56
2021/10/01 09:26:54;;;;;;;17.17;10.50;;;;;;;;;;143728;606;45911;-56
2021/10/01 09:29:34;;;;;;;16.98;8.95;;;;;;;;;;143727;610;46012;-56
2021/10/01 09:32:09;;;;;;;18.10;8.25;;;;;;;;;;143728;598;46020;-57
2021/10/01 09:34:44;;;;;;;17.23;11.52;;;;;;;;;;143726;613;46022;-55
2021/10/01 09:37:21;;;;;;;15.43;8.70;;;;;;;;;;143724;569;47012;-55
2021/10/01 09:39:54;;;;;;;17.80;9.35;;;;;;;;;;143730;588;45027;-55
2021/10/01 09:42:27;;;;;;;13.93;7.53;;;;;;;;;;143729;618;46018;-55
2021/10/01 09:45:01;;;;;;;9.75;6.82;;;;;;;;;;143726;609;46022;-55
2021/10/01 09:47:33;;;;;;;10.63;7.27;;;;;;;;;;143728;570;46012;-55
2021/10/01 09:50:12;;;;;;;11.57;6.62;;;;;;;;;;143730;570;45023;-55
2021/10/01 09:53:10;;;;;;;11.00;6.47;;;;;;;;;;143727;613;47020;-55
2021/10/01 09:55:46;;;;;;;13.75;7.15;;;;;;;;;;143727;644;46013;-55
2021/10/01 09:58:16;;;;;;;10.43;5.90;;;;;;;;;;143725;578;46018;-54
2021/10/01 10:00:58;;;;;;;14.35;5.80;;;;;;;;;;143730;573;45025;-55
2021/10/01 10:03:34;;;;;;;15.10;5.95;;;;;;;;;;143723;599;49019;-54
2021/10/01 10:06:03;;;;;;;10.35;5.68;;;;;;;;;;143726;574;46022;-54
2021/10/01 10:08:37;;;;;;;10.77;6.28;;;;;;;;;;143727;599;45912;-54
2021/10/01 10:11:06;;;;;;;11.98;6.03;;;;;;;;;;143728;570;46023;-54
2021/10/01 10:13:45;;;;;;;10.52;6.90;;;;;;;;;;143726;564;46912;-54
2021/10/01 10:16:24;;;;;;;12.88;6.32;;;;;;;;;;143727;570;46022;-54
2021/10/01 10:19:00;;;;;;;13.57;6.10;;;;;;;;;;143727;618;45912;-54
2021/10/01 10:21:28;;;;;;;11.88;6.70;;;;;;;;;;143729;627;46012;-55
2021/10/01 10:23:56;;;;;;;8.70;5.30;;;;;;;;;;143726;601;46020;-54
2021/10/01 10:26:24;;;;;;;8.82;5.95;;;;;;;;;;143725;581;46032;-55
2021/10/01 10:29:04;;;;;;;14.10;5.68;;;;;;;;;;143727;620;46012;-55
2021/10/01 10:31:34;;;;;;;12.27;6.62;;;;;;;;;;143730;576;46010;-55
2021/10/01 10:34:01;;;;;;;8.73;5.85;;;;;;;;;;143727;614;47018;-55
2021/10/01 10:36:44;;;;;;;10.27;5.90;;;;;;;;;;143728;591;46920;-55
2021/10/01 10:39:34;;;;;;;10.75;5.90;;;;;;;;;;143725;581;46018;-57
2021/10/01 10:42:16;;;;;;;12.70;5.47;;;;;;;;;;143726;572;48022;-55
2021/10/01 10:44:49;;;;;;;10.98;5.30;;;;;;;;;;143726;569;46041;-55
2021/10/01 10:47:52;;;;;;;9.38;5.40;;;;;;;;;;143729;576;46012;-56
2021/10/01 10:50:45;;;;;;;10.77;6.50;;;;;;;;;;143728;590;46012;-55
2021/10/01 10:53:16;;;;;;;10.10;5.65;;;;;;;;;;143729;566;46012;-55
2021/10/01 10:56:07;;;;;;;11.70;5.07;;;;;;;;;;143726;597;47021;-55
2021/10/01 10:58:39;;;;;;;20.08;7.12;;;;;;;;;;143727;585;49012;-55
2021/10/01 11:01:36;;;;;;;14.20;8.30;;;;;;;;;;143725;609;46019;-54
2021/10/01 11:04:23;;;;;;;10.68;5.40;;;;;;;;;;143727;570;46022;-55
2021/10/01 11:06:50;;;;;;;16.67;5.78;;;;;;;;;;143726;566;47018;-55
2021/10/01 11:09:27;;;;;;;12.15;6.28;;;;;;;;;;143725;564;48012;-55
2021/10/01 11:11:58;;;;;;;13.73;6.62;;;;;;;;;;143728;631;45909;-56
2021/10/01 11:14:27;;;;;;;11.90;8.15;;;;;;;;;;143725;586;46022;-55
2021/10/01 11:17:17;;;;;;;20.75;13.10;;;;;;;;;;143730;569;46019;-56
2021/10/01 11:19:47;;;;;;;8.38;5.70;;;;;;;;;;143728;598;46918;-56
2021/10/01 11:22:35;;;;;;;14.07;5.57;;;;;;;;;;143727;582;46012;-55
2021/10/01 11:25:17;;;;;;;7.05;5.20;;;;;;;;;;143730;616;45021;-55
2021/10/01 11:27:58;;;;;;;17.15;12.02;;;;;;;;;;143727;609;46020;-54
2021/10/01 11:30:27;;;;;;;12.30;7.87;;;;;;;;;;143727;577;46012;-54
2021/10/01 11:32:56;;;;;;;13.80;8.20;;;;;;;;;;143727;590;45913;-55
2021/10/01 11:35:23;;;;;;;16.60;11.30;;;;;;;;;;143728;584;46020;-54
2021/10/01 11:37:51;;;;;;;13.62;8.52;;;;;;;;;;143726;605;46020;-55
2021/10/01 11:40:29;;;;;;;17.02;10.80;;;;;;;;;;143730;581;46013;-55
2021/10/01 11:42:59;;;;;;;14.00;7.40;;;;;;;;;;143728;572;46012;-55
2021/10/01 11:45:32;;;;;;;12.40;6.55;;;;;;;;;;143730;575;46022;-54
2021/10/01 11:48:05;;;;;;;11.18;6.35;;;;;;;;;;143726;567;46018;-56
2021/10/01 11:50:43;;;;;;;10.65;5.70;;;;;;;;;;143728;570;46033;-55
2021/10/01 11:53:35;;;;;;;11.15;6.47;;;;;;;;;;143728;599;46012;-53
2021/10/01 11:56:06;;;;;;;11.27;6.03;;;;;;;;;;143730;585;45025;-54
2021/10/01 11:58:36;;;;;;;15.05;5.15;;;;;;;;;;143727;617;46020;-54
2021/10/01 12:01:18;;;;;;;14.35;7.60;;;;;;;;;;143727;594;46023;-54
2021/10/01 12:03:56;;;;;;;29.87;19.27;;;;;;;;;;143728;570;45912;-54
2021/10/01 12:06:30;;;;;;;21.42;14.27;;;;;;;;;;143730;585;45022;-55
2021/10/01 12:09:00;;;;;;;26.45;14.50;;;;;;;;;;143727;611;46020;-54
2021/10/01 12:11:33;;;;;;;22.40;14.65;;;;;;;;;;143730;571;46012;-54
2021/10/01 12:14:19;;;;;;;15.43;9.40;;;;;;;;;;143727;574;46018;-54
2021/10/01 12:16:57;;;;;;;19.17;8.05;;;;;;;;;;143734;590;45023;-55
2021/10/01 12:19:26;;;;;;;16.40;8.30;;;;;;;;;;143726;577;46020;-54
2021/10/01 12:22:28;;;;;;;15.00;9.23;;;;;;;;;;143730;594;46022;-54
2021/10/01 12:24:56;;;;;;;13.40;7.50;;;;;;;;;;143728;586;45911;-54
2021/10/01 12:27:39;;;;;;;12.27;7.40;;;;;;;;;;143729;604;46012;-54
2021/10/01 12:30:08;;;;;;;9.90;6.45;;;;;;;;;;143728;597;46020;-54
2021/10/01 12:32:36;;;;;;;11.82;7.45;;;;;;;;;;143728;579;46027;-53
2021/10/01 12:35:06;;;;;;;10.38;6.60;;;;;;;;;;143729;569;46018;-55
2021/10/01 12:37:39;;;;;;;13.82;6.53;;;;;;;;;;143730;564;46010;-54
2021/10/01 12:40:06;;;;;;;11.43;5.80;;;;;;;;;;143727;566;46021;-55
2021/10/01 12:42:35;;;;;;;11.27;5.62;;;;;;;;;;143730;571;46012;-55
2021/10/01 12:45:12;;;;;;;11.82;5.32;;;;;;;;;;143731;596;45912;-55
2021/10/01 12:47:42;;;;;;;9.38;5.30;;;;;;;;;;143732;688;45023;-54
2021/10/01 12:50:19;;;;;;;11.48;5.62;;;;;;;;;;143727;633;46018;-54
2021/10/01 12:53:22;;;;;;;8.57;5.20;;;;;;;;;;143727;570;46022;-55
2021/10/01 12:55:49;;;;;;;9.38;4.95;;;;;;;;;;143728;589;46012;-54
2021/10/01 12:58:20;;;;;;;11.20;5.82;;;;;;;;;;143731;588;45022;-54
2021/10/01 13:00:49;;;;;;;8.93;5.45;;;;;;;;;;143728;622;46019;-54
2021/10/01 13:03:16;;;;;;;10.27;4.50;;;;;;;;;;143726;594;46022;-54
2021/10/01 13:05:47;;;;;;;10.93;5.28;;;;;;;;;;143726;579;46012;-54
2021/10/01 13:08:20;;;;;;;11.57;5.75;;;;;;;;;;143729;602;46022;-54
2021/10/01 13:10:59;;;;;;;10.52;4.87;;;;;;;;;;143728;564;46026;-54
2021/10/01 13:13:34;;;;;;;7.47;4.70;;;;;;;;;;143729;600;46022;-54
2021/10/01 13:16:09;;;;;;;8.82;5.20;;;;;;;;;;143728;569;45912;-55
2021/10/01 13:18:39;;;;;;;8.85;4.70;;;;;;;;;;143731;595;45022;-54
2021/10/01 13:21:21;;;;;;;10.60;5.05;;;;;;;;;;143727;577;47018;-55
2021/10/01 13:23:59;;;;;;;7.60;4.12;;;;;;;;;;143732;600;46013;-54
2021/10/01 13:26:46;;;;;;;8.48;4.72;;;;;;;;;;143729;602;45912;-54
2021/10/01 13:29:13;;;;;;;9.77;4.43;;;;;;;;;;143731;646;46010;-54
2021/10/01 13:31:42;;;;;;;9.32;4.43;;;;;;;;;;143728;586;46019;-54
2021/10/01 13:34:11;;;;;;;8.85;4.47;;;;;;;;;;143732;566;46920;-55
2021/10/01 13:36:38;;;;;;;7.37;4.32;;;;;;;;;;143726;631;46018;-54
2021/10/01 13:39:05;;;;;;;5.78;4.18;;;;;;;;;;143732;637;45034;-54
2021/10/01 13:41:33;;;;;;;7.97;3.90;;;;;;;;;;143727;618;47020;-55
2021/10/01 13:44:00;;;;;;;8.27;4.00;;;;;;;;;;143730;625;46022;-55
2021/10/01 13:46:27;;;;;;;7.62;4.18;;;;;;;;;;143729;626;46012;-54
2021/10/01 13:48:54;;;;;;;8.63;4.40;;;;;;;;;;143733;592;45022;-55
2021/10/01 13:51:22;;;;;;;9.20;4.78;;;;;;;;;;143730;622;46018;-55
2021/10/01 13:53:51;;;;;;;7.03;4.18;;;;;;;;;;143732;596;46023;-52
2021/10/01 13:56:18;;;;;;;7.65;4.10;;;;;;;;;;143727;579;46018;-53
2021/10/01 13:58:45;;;;;;;7.47;3.70;;;;;;;;;;143733;669;46010;-54
2021/10/01 14:01:12;;;;;;;8.02;4.20;;;;;;;;;;143734;582;46018;-54
2021/10/01 14:03:40;;;;;;;5.72;3.60;;;;;;;;;;143731;610;46022;-55
2021/10/01 14:06:07;;;;;;;8.15;4.30;;;;;;;;;;143730;581;45912;-55
2021/10/01 14:08:34;;;;;;;8.48;4.40;;;;;;;;;;143730;609;46023;-55
2021/10/01 14:11:01;;;;;;;6.10;4.05;;;;;;;;;;143728;569;47020;-55
2021/10/01 14:13:28;;;;;;;7.10;4.20;;;;;;;;;;143731;623;46920;-54
2021/10/01 14:15:55;;;;;;;6.97;4.45;;;;;;;;;;143728;589;46013;-54
2021/10/01 14:18:25;;;;;;;7.20;4.53;;;;;;;;;;143731;588;46022;-55
2021/10/01 14:20:52;;;;;;;11.65;4.82;;;;;;;;;;143731;569;46018;-54
2021/10/01 14:23:19;;;;;;;8.52;4.45;;;;;;;;;;143728;630;46023;-54
2021/10/01 14:25:47;;;;;;;8.23;4.93;;;;;;;;;;143729;571;46012;-54
2021/10/01 14:28:14;;;;;;;9.05;4.40;;;;;;;;;;143730;640;46010;-54
2021/10/01 14:30:41;;;;;;;10.43;4.30;;;;;;;;;;143728;838;46020;-55
2021/10/01 14:33:11;;;;;;;6.57;4.00;;;;;;;;;;143729;601;46022;-54
2021/10/01 14:35:39;;;;;;;9.40;4.30;;;;;;;;;;143727;632;46018;-54
2021/10/01 14:38:08;;;;;;;6.68;3.90;;;;;;;;;;143733;606;45023;-55
2021/10/01 14:40:41;;;;;;;10.32;3.72;;;;;;;;;;143729;564;46018;-54
2021/10/01 14:43:07;;;;;;;6.43;3.70;;;;;;;;;;143730;630;46010;-55
2021/10/01 14:45:34;;;;;;;12.68;4.32;;;;;;;;;;143729;746;46013;-55
2021/10/01 14:48:02;;;;;;;5.80;4.37;;;;;;;;;;143730;704;46022;-54
2021/10/01 14:50:29;;;;;;;5.90;3.58;;;;;;;;;;143729;570;46018;-54
2021/10/01 14:52:56;;;;;;;11.20;3.72;;;;;;;;;;143732;583;46012;-55
2021/10/01 14:55:23;;;;;;;7.43;3.37;;;;;;;;;;143730;567;45912;-55
2021/10/01 14:57:50;;;;;;;6.00;3.92;;;;;;;;;;143733;563;45032;-54
2021/10/01 15:00:17;;;;;;;6.90;3.80;;;;;;;;;;143728;608;46020;-54
2021/10/01 15:02:44;;;;;;;7.07;4.12;;;;;;;;;;143727;599;46022;-54
2021/10/01 15:05:11;;;;;;;8.55;3.85;;;;;;;;;;143730;585;45912;-54
2021/10/01 15:07:38;;;;;;;6.80;3.97;;;;;;;;;;143732;782;45023;-54
2021/10/01 15:10:06;;;;;;;7.28;4.00;;;;;;;;;;143730;740;46018;-55
2021/10/01 15:12:34;;;;;;;7.50;3.80;;;;;;;;;;143728;571;46012;-55
2021/10/01 15:15:03;;;;;;;6.93;3.87;;;;;;;;;;143730;564;45912;-55
2021/10/01 15:17:31;;;;;;;4.78;3.47;;;;;;;;;;143732;589;46010;-54
2021/10/01 15:19:58;;;;;;;8.80;4.28;;;;;;;;;;143729;866;46018;-54
2021/10/01 15:22:25;;;;;;;9.15;4.40;;;;;;;;;;143729;572;46920;-54
2021/10/01 15:24:52;;;;;;;11.25;4.80;;;;;;;;;;143726;601;46018;-54
2021/10/01 15:27:19;;;;;;;8.15;3.83;;;;;;;;;;143731;613;46010;-54
2021/10/01 15:30:23;;;;;;;5.82;3.95;;;;;;;;;;143731;567;47019;-54
2021/10/01 15:32:50;;;;;;;7.05;3.97;;;;;;;;;;143729;741;46022;-55
2021/10/01 15:35:22;;;;;;;6.47;4.05;;;;;;;;;;143733;573;45912;-54
2021/10/01 15:37:53;;;;;;;7.20;3.80;;;;;;;;;;143730;644;46022;-54
2021/10/01 15:40:21;;;;;;;7.12;3.97;;;;;;;;;;143734;795;46018;-55
2021/10/01 15:42:49;;;;;;;7.95;4.60;;;;;;;;;;143734;604;46012;-55
2021/10/01 15:45:17;;;;;;;5.50;4.10;;;;;;;;;;143729;664;46019;-55
2021/10/01 15:47:44;;;;;;;8.98;4.22;;;;;;;;;;143734;751;46022;-54
2021/10/01 15:50:15;;;;;;;7.72;4.03;;;;;;;;;;143730;606;46043;-55
2021/10/01 15:52:47;;;;;;;6.72;4.07;;;;;;;;;;143733;711;46023;-54
2021/10/01 15:55:16;;;;;;;6.07;4.18;;;;;;;;;;143729;579;45912;-54
2021/10/01 15:57:44;;;;;;;10.15;4.35;;;;;;;;;;143730;582;46010;-54
2021/10/01 16:00:12;;;;;;;9.07;4.78;;;;;;;;;;143729;618;46020;-54
2021/10/01 16:02:40;;;;;;;9.95;4.82;;;;;;;;;;143728;678;46022;-54
2021/10/01 16:05:09;;;;;;;8.30;4.55;;;;;;;;;;143729;605;46012;-55
2021/10/01 16:07:37;;;;;;;11.07;5.25;;;;;;;;;;143731;768;45023;-55
2021/10/01 16:10:06;;;;;;;7.53;4.28;;;;;;;;;;143728;805;46021;-55
2021/10/01 16:12:33;;;;;;;11.68;4.80;;;;;;;;;;143733;611;46012;-55
2021/10/01 16:15:00;;;;;;;6.28;4.30;;;;;;;;;;143727;632;46019;-54
2021/10/01 16:17:27;;;;;;;6.62;3.95;;;;;;;;;;143733;822;45023;-54
2021/10/01 16:19:54;;;;;;;8.13;4.45;;;;;;;;;;143729;599;46018;-55